Stouffville, Canada
Current Conditions -  °F | °C
As of 5:00 PM on Tuesday 25 Nov 2014 (Local Time) from CYKZ Reporting Station
Snow Showers Snow Showers  
Wind Chill: 26°   Ceiling: 2500
Heat Index: 34°   Visibility: 12mi
Dew Point: 25°   Wind: 9mph
Humidity: 70%   Direction: 250°WSW
Pressure: 29.99"   Gusts: 17mph
Location:  43.97°N, 79.25°W
Report Text: CYKZ 252200Z 25008G15KT 12SM -SHSN OVC025 01/M04 A2999 RMK SC8SLP164
Loading
Personal Weather Stations






























Interactive Weather Map New forecast layout! Learn more

10-Day Weather Forecast

Advertisements
Track Severe Weather on mobile